createdAt,value
2022-09-24T00:01:26.579Z,76.86
2022-09-24T00:04:04.739Z,76.44
2022-09-24T00:06:35.920Z,76.63
2022-09-24T00:09:02.477Z,76.74
2022-09-24T00:11:29.346Z,77.37
2022-09-24T00:13:58.248Z,76.74
2022-09-24T00:16:26.647Z,77.19
2022-09-24T00:18:54.116Z,77.15
2022-09-24T00:21:20.398Z,76.46
2022-09-24T00:23:52.144Z,76.89
2022-09-24T00:26:37.758Z,77.40
2022-09-24T00:29:05.029Z,76.88
2022-09-24T00:31:31.838Z,77.50
2022-09-24T00:33:58.836Z,76.80
2022-09-24T00:36:25.191Z,77.42
2022-09-24T00:38:53.443Z,77.27
2022-09-24T00:41:21.460Z,77.30
2022-09-24T00:43:49.291Z,76.59
2022-09-24T00:46:25.802Z,76.97
2022-09-24T00:48:57.334Z,77.38
2022-09-24T00:51:26.511Z,77.34
2022-09-24T00:53:57.060Z,77.74
2022-09-24T00:56:23.947Z,77.66
2022-09-24T00:58:55.004Z,77.56
2022-09-24T01:01:24.161Z,77.66
2022-09-24T01:03:55.393Z,78.01
2022-09-24T01:06:21.841Z,77.90
2022-09-24T01:08:48.371Z,78.20
2022-09-24T01:11:42.680Z,77.45
2022-09-24T01:14:23.573Z,78.02
2022-09-24T01:17:10.374Z,77.63
2022-09-24T01:20:01.102Z,77.78
2022-09-24T01:22:49.640Z,78.16
2022-09-24T01:25:34.618Z,77.94
2022-09-24T01:28:30.492Z,78.26
2022-09-24T01:31:07.483Z,77.81
2022-09-24T01:33:36.393Z,78.29
2022-09-24T01:36:08.818Z,77.94
2022-09-24T01:38:42.069Z,78.21
2022-09-24T01:41:12.487Z,78.20
2022-09-24T01:43:39.371Z,78.25
2022-09-24T01:46:07.247Z,78.31
2022-09-24T01:48:37.354Z,77.94
2022-09-24T01:51:22.231Z,78.40
2022-09-24T01:53:57.552Z,78.62
2022-09-24T01:56:47.766Z,78.77
2022-09-24T01:59:28.622Z,78.38
2022-09-24T02:02:07.899Z,78.66
2022-09-24T02:04:40.469Z,78.57
2022-09-24T02:07:24.377Z,78.82
2022-09-24T02:09:50.913Z,78.81
2022-09-24T02:12:27.128Z,79.06
2022-09-24T02:15:15.231Z,79.10
2022-09-24T02:17:46.127Z,78.92
2022-09-24T02:20:21.059Z,79.19
2022-09-24T02:22:50.066Z,79.14
2022-09-24T02:25:23.216Z,79.09
2022-09-24T02:27:50.812Z,79.49
2022-09-24T02:30:19.434Z,79.30
2022-09-24T02:32:46.777Z,79.44
2022-09-24T02:35:13.554Z,79.11
2022-09-24T02:37:42.563Z,79.47
2022-09-24T02:40:12.184Z,79.44
2022-09-24T02:42:41.412Z,79.47
2022-09-24T02:45:10.637Z,79.04
2022-09-24T02:47:37.609Z,79.30
2022-09-24T02:50:04.936Z,79.28
2022-09-24T02:52:31.384Z,79.25
2022-09-24T02:54:58.321Z,79.61
2022-09-24T02:57:24.718Z,79.42
2022-09-24T02:59:51.178Z,79.68
2022-09-24T03:02:17.717Z,79.75
2022-09-24T03:04:45.232Z,79.47
2022-09-24T03:07:14.498Z,79.54
2022-09-24T03:09:41.350Z,79.37
2022-09-24T03:12:08.254Z,79.43
2022-09-24T03:14:34.681Z,79.56
2022-09-24T03:17:02.351Z,79.74
2022-09-24T03:19:29.342Z,79.63
2022-09-24T03:21:55.854Z,79.91
2022-09-24T03:24:22.389Z,79.69
2022-09-24T03:26:48.850Z,79.96
2022-09-24T03:29:15.479Z,79.88
2022-09-24T03:31:41.999Z,79.86
2022-09-24T03:34:08.520Z,80.00
2022-09-24T03:36:35.096Z,80.21
2022-09-24T03:39:03.388Z,80.09
2022-09-24T03:41:30.025Z,80.07
2022-09-24T03:43:56.580Z,80.04
2022-09-24T03:46:29.970Z,80.15
2022-09-24T03:48:59.236Z,80.22
2022-09-24T03:51:25.944Z,80.20
2022-09-24T03:53:52.503Z,80.43
2022-09-24T03:56:20.605Z,80.43
2022-09-24T03:58:48.409Z,80.43
2022-09-24T04:01:23.820Z,80.29
2022-09-24T04:03:50.990Z,80.44
2022-09-24T04:06:25.521Z,80.21
2022-09-24T04:08:52.873Z,80.44
2022-09-24T04:11:19.260Z,80.30
2022-09-24T04:13:45.874Z,80.42
2022-09-24T04:16:12.303Z,80.60
2022-09-24T04:18:39.669Z,80.46
2022-09-24T04:21:06.328Z,80.36
2022-09-24T04:23:32.791Z,80.14
2022-09-24T04:26:02.950Z,80.30
2022-09-24T04:28:30.199Z,80.78
2022-09-24T04:30:56.758Z,80.53
2022-09-24T04:33:23.387Z,80.36
2022-09-24T04:35:51.151Z,80.63
2022-09-24T04:38:19.323Z,80.61
2022-09-24T04:40:47.373Z,80.46
2022-09-24T04:43:17.248Z,80.22
2022-09-24T04:45:45.513Z,80.39
2022-09-24T04:48:14.233Z,80.66
2022-09-24T04:50:45.575Z,80.38
2022-09-24T04:53:13.158Z,80.39
2022-09-24T04:55:39.747Z,80.80
2022-09-24T04:58:06.336Z,80.74
2022-09-24T05:00:33.740Z,80.99
2022-09-24T05:03:05.237Z,80.97
2022-09-24T05:05:34.918Z,81.08
2022-09-24T05:08:02.167Z,80.79
2022-09-24T05:10:33.374Z,80.61
2022-09-24T05:13:01.006Z,80.43
2022-09-24T05:15:27.600Z,80.73
2022-09-24T05:17:54.289Z,80.91
2022-09-24T05:20:21.409Z,80.74
2022-09-24T05:22:49.900Z,81.45
2022-09-24T05:25:19.314Z,81.00
2022-09-24T05:27:54.489Z,80.82
2022-09-24T05:30:24.058Z,80.72
2022-09-24T05:32:53.822Z,80.67
2022-09-24T05:35:21.985Z,80.77
2022-09-24T05:37:50.916Z,81.28
2022-09-24T05:40:36.020Z,80.75
2022-09-24T05:43:04.265Z,81.00
2022-09-24T05:45:31.023Z,80.75
2022-09-24T05:47:59.874Z,80.81
2022-09-24T05:50:26.374Z,81.00
2022-09-24T05:52:52.793Z,81.05
2022-09-24T05:55:19.314Z,80.67
2022-09-24T05:57:45.727Z,80.77
2022-09-24T06:00:12.456Z,81.13
2022-09-24T06:02:41.342Z,80.73
2022-09-24T06:05:08.607Z,80.94
2022-09-24T06:07:35.158Z,80.72
2022-09-24T06:10:01.669Z,80.75
2022-09-24T06:12:28.589Z,81.00
2022-09-24T06:14:55.103Z,80.70
2022-09-24T06:17:22.083Z,80.55
2022-09-24T06:19:48.790Z,80.56
2022-09-24T06:22:15.259Z,80.49
2022-09-24T06:24:41.775Z,80.32
2022-09-24T06:27:08.504Z,80.26
2022-09-24T06:29:35.784Z,79.86
2022-09-24T06:32:02.626Z,79.70
2022-09-24T06:34:29.339Z,80.06
2022-09-24T06:36:57.150Z,80.16
2022-09-24T06:39:24.695Z,80.09
2022-09-24T06:41:51.591Z,80.09
2022-09-24T06:44:19.169Z,79.92
2022-09-24T06:46:45.843Z,80.13
2022-09-24T06:49:12.774Z,80.05
2022-09-24T06:51:40.315Z,80.01
2022-09-24T06:54:08.364Z,79.58
2022-09-24T06:56:39.093Z,79.67
2022-09-24T06:59:06.836Z,79.78
2022-09-24T07:01:33.425Z,79.55
2022-09-24T07:04:00.299Z,79.62
2022-09-24T07:06:47.945Z,79.91
2022-09-24T07:09:20.144Z,79.95
2022-09-24T07:11:46.628Z,79.52
2022-09-24T07:14:13.740Z,79.76
2022-09-24T07:16:40.210Z,79.50
2022-09-24T07:19:06.714Z,79.41
2022-09-24T07:21:33.159Z,79.16
2022-09-24T07:24:02.150Z,79.16
2022-09-24T07:26:32.552Z,79.16
2022-09-24T07:28:59.275Z,78.99
2022-09-24T07:31:27.124Z,78.91
2022-09-24T07:33:53.844Z,79.25
2022-09-24T07:36:20.649Z,79.00
2022-09-24T07:38:48.382Z,78.83
2022-09-24T07:41:16.109Z,79.03
2022-09-24T07:43:44.455Z,79.10
2022-09-24T07:46:11.171Z,79.09
2022-09-24T07:48:41.263Z,79.00
2022-09-24T07:51:12.138Z,79.09
2022-09-24T07:53:38.618Z,78.79
2022-09-24T07:56:05.310Z,78.64
2022-09-24T07:58:32.023Z,78.67
2022-09-24T08:00:59.495Z,78.39
2022-09-24T08:03:26.668Z,78.62
2022-09-24T08:05:57.951Z,78.34
2022-09-24T08:08:24.770Z,78.41
2022-09-24T08:10:51.334Z,78.41
2022-09-24T08:13:19.451Z,78.42
2022-09-24T08:15:56.691Z,78.15
2022-09-24T08:18:24.701Z,78.25
2022-09-24T08:20:51.535Z,78.22
2022-09-24T08:23:18.089Z,77.95
2022-09-24T08:25:44.981Z,78.19
2022-09-24T08:28:12.252Z,77.74
2022-09-24T08:30:41.913Z,77.54
2022-09-24T08:33:09.796Z,77.17
2022-09-24T08:35:38.740Z,77.69
2022-09-24T08:38:05.500Z,77.26
2022-09-24T08:41:01.968Z,76.87
2022-09-24T08:43:51.878Z,76.62
2022-09-24T08:46:59.449Z,76.46
2022-09-24T08:49:33.918Z,76.07
2022-09-24T08:52:14.098Z,76.01
2022-09-24T08:54:42.065Z,75.20
2022-09-24T08:57:14.017Z,75.13
2022-09-24T08:59:43.697Z,75.05
2022-09-24T09:02:29.330Z,74.66
2022-09-24T09:05:15.594Z,74.77
2022-09-24T09:07:49.509Z,74.49
2022-09-24T09:10:27.730Z,74.38
2022-09-24T09:13:00.420Z,73.90
2022-09-24T09:15:32.218Z,73.79
2022-09-24T09:18:21.710Z,73.80
2022-09-24T09:20:49.990Z,73.83
2022-09-24T09:23:20.658Z,73.77
2022-09-24T09:25:59.753Z,73.31
2022-09-24T09:28:28.309Z,72.91
2022-09-24T09:31:20.313Z,72.21
2022-09-24T09:34:18.146Z,72.17
2022-09-24T09:37:14.613Z,72.31
2022-09-24T09:40:03.086Z,72.28
2022-09-24T09:42:36.306Z,71.89
2022-09-24T09:45:44.436Z,72.40
2022-09-24T09:48:21.650Z,71.84
2022-09-24T09:50:50.781Z,72.25
2022-09-24T09:53:26.466Z,72.18
2022-09-24T09:55:58.335Z,72.25
2022-09-24T09:58:27.859Z,72.13
2022-09-24T10:01:07.290Z,72.06
2022-09-24T10:03:46.605Z,72.44
2022-09-24T10:06:24.067Z,72.38
2022-09-24T10:08:50.645Z,72.06
2022-09-24T10:11:18.310Z,72.35
2022-09-24T10:13:45.745Z,72.16
2022-09-24T10:16:15.800Z,72.17
2022-09-24T10:18:47.327Z,72.49
2022-09-24T10:21:28.274Z,72.56
2022-09-24T10:23:59.987Z,72.50
2022-09-24T10:26:41.009Z,72.25
2022-09-24T10:29:34.247Z,72.56
2022-09-24T10:32:01.961Z,72.72
2022-09-24T10:34:30.047Z,73.30
2022-09-24T10:37:08.774Z,73.46
2022-09-24T10:39:37.664Z,73.66
2022-09-24T10:42:08.162Z,73.75
2022-09-24T10:44:36.932Z,73.98
2022-09-24T10:47:04.819Z,74.40
2022-09-24T10:49:55.222Z,73.96
2022-09-24T10:52:51.239Z,74.52
2022-09-24T10:55:55.520Z,74.49
2022-09-24T10:58:28.165Z,74.79
2022-09-24T11:01:25.423Z,74.95
2022-09-24T11:04:02.248Z,74.92
2022-09-24T11:06:52.865Z,74.74
2022-09-24T11:09:25.584Z,74.72
2022-09-24T11:12:21.043Z,74.89
2022-09-24T11:15:15.317Z,74.61
2022-09-24T11:18:00.482Z,74.65
2022-09-24T11:20:36.844Z,74.71
2022-09-24T11:23:31.250Z,74.82
2022-09-24T11:26:34.964Z,74.56
2022-09-24T11:29:21.069Z,74.91
2022-09-24T11:32:12.477Z,74.71
2022-09-24T11:35:00.874Z,74.78
2022-09-24T11:38:15.055Z,74.59
2022-09-24T11:40:52.116Z,74.73
2022-09-24T11:43:24.642Z,74.88
2022-09-24T11:46:13.989Z,74.93
2022-09-24T11:49:19.016Z,75.04
2022-09-24T11:52:06.183Z,75.07
2022-09-24T11:54:35.407Z,74.98
2022-09-24T11:57:31.171Z,74.99
2022-09-24T12:00:08.765Z,75.33
2022-09-24T12:02:40.610Z,75.78
2022-09-24T12:05:15.614Z,75.88
2022-09-24T12:07:49.560Z,76.15
2022-09-24T12:10:30.764Z,76.20
2022-09-24T12:13:13.271Z,76.71
2022-09-24T12:15:56.408Z,76.78
2022-09-24T12:18:32.562Z,76.80
2022-09-24T12:21:06.763Z,76.60
2022-09-24T12:23:39.694Z,77.04
2022-09-24T12:26:08.150Z,77.21
2022-09-24T12:29:09.753Z,77.18
2022-09-24T12:32:24.463Z,77.67
2022-09-24T12:35:15.573Z,77.75
2022-09-24T12:37:45.854Z,77.85
2022-09-24T12:40:12.340Z,78.00
2022-09-24T12:42:50.681Z,78.33
2022-09-24T12:45:22.511Z,78.47
2022-09-24T12:47:55.795Z,78.67
2022-09-24T12:50:30.664Z,78.73
2022-09-24T12:52:57.277Z,79.14
2022-09-24T12:55:50.645Z,78.95
2022-09-24T12:58:53.390Z,79.31
2022-09-24T13:01:30.705Z,79.18
2022-09-24T13:04:27.174Z,79.25
2022-09-24T13:06:54.695Z,79.36
2022-09-24T13:09:40.780Z,79.42
2022-09-24T13:12:33.341Z,79.21
2022-09-24T13:15:02.839Z,79.34
2022-09-24T13:17:35.302Z,79.23
2022-09-24T13:20:08.318Z,79.43
2022-09-24T13:22:38.101Z,79.31
2022-09-24T13:25:07.740Z,79.37
2022-09-24T13:27:42.813Z,79.44
2022-09-24T13:30:18.374Z,79.60
2022-09-24T13:33:21.418Z,79.85
2022-09-24T13:35:52.693Z,80.06
2022-09-24T13:38:28.781Z,80.04
2022-09-24T13:41:06.428Z,80.50
2022-09-24T13:43:47.541Z,80.49
2022-09-24T13:46:19.675Z,80.59
2022-09-24T13:48:56.948Z,80.48
2022-09-24T13:51:28.881Z,80.24
2022-09-24T13:54:01.459Z,80.24
2022-09-24T13:56:28.187Z,80.37
2022-09-24T13:59:10.450Z,80.80
2022-09-24T14:01:41.375Z,80.62
2022-09-24T14:04:18.443Z,80.42
2022-09-24T14:06:49.203Z,80.41
2022-09-24T14:09:35.921Z,80.65
2022-09-24T14:12:22.865Z,80.69
2022-09-24T14:14:57.061Z,80.73
2022-09-24T14:17:24.796Z,80.86
2022-09-24T14:19:58.196Z,81.01
2022-09-24T14:22:31.066Z,81.07
2022-09-24T14:25:03.998Z,81.08
2022-09-24T14:27:32.371Z,80.99
2022-09-24T14:30:04.166Z,80.86
2022-09-24T14:32:33.884Z,80.69
2022-09-24T14:35:08.050Z,81.31
2022-09-24T14:37:41.972Z,81.35
2022-09-24T14:40:20.298Z,80.89
2022-09-24T14:42:57.235Z,81.25
2022-09-24T14:45:27.874Z,81.44
2022-09-24T14:48:02.280Z,81.61
2022-09-24T14:50:43.673Z,81.79
2022-09-24T14:53:35.915Z,81.77
2022-09-24T14:56:32.428Z,81.44
2022-09-24T14:58:59.996Z,81.70
2022-09-24T15:01:32.344Z,81.33
2022-09-24T15:04:24.949Z,81.77
2022-09-24T15:06:51.830Z,81.73
2022-09-24T15:09:30.527Z,81.56
2022-09-24T15:12:14.869Z,81.54
2022-09-24T15:14:42.443Z,81.73
2022-09-24T15:17:19.529Z,81.48
2022-09-24T15:19:48.520Z,81.67
2022-09-24T15:22:15.417Z,81.88
2022-09-24T15:24:42.172Z,81.79
2022-09-24T15:30:20.196Z,81.90
2022-09-24T15:32:52.564Z,82.14
2022-09-24T15:38:15.148Z,82.04
2022-09-24T15:40:43.209Z,82.02
2022-09-24T15:43:19.155Z,82.05
2022-09-24T15:45:45.811Z,81.68
2022-09-24T15:48:12.509Z,82.06
2022-09-24T15:50:40.117Z,82.24
2022-09-24T15:53:07.445Z,82.19
2022-09-24T15:55:36.392Z,82.28
2022-09-24T15:58:03.113Z,81.84
2022-09-24T16:00:29.946Z,81.88
2022-09-24T16:02:57.717Z,81.98
2022-09-24T16:05:26.761Z,82.17
2022-09-24T16:07:55.631Z,82.17
2022-09-24T16:10:22.713Z,82.06
2022-09-24T16:12:49.439Z,82.02
2022-09-24T16:15:17.030Z,82.34
2022-09-24T16:17:44.497Z,82.18
2022-09-24T16:20:11.471Z,82.32
2022-09-24T16:22:38.962Z,82.42
2022-09-24T16:25:06.328Z,82.28
2022-09-24T16:27:40.104Z,82.63
2022-09-24T16:30:08.598Z,82.73
2022-09-24T16:32:35.281Z,82.85
2022-09-24T16:35:02.830Z,83.04
2022-09-24T16:37:32.868Z,82.69
2022-09-24T16:39:59.625Z,82.82
2022-09-24T16:42:26.564Z,83.39
2022-09-24T16:44:53.468Z,83.40
2022-09-24T16:47:20.921Z,83.25
2022-09-24T16:49:48.216Z,83.51
2022-09-24T16:52:14.928Z,83.71
2022-09-24T16:54:41.889Z,83.61
2022-09-24T16:57:08.491Z,83.62
2022-09-24T16:59:35.119Z,83.44
2022-09-24T17:02:02.010Z,83.54
2022-09-24T17:04:28.944Z,83.86
2022-09-24T17:07:04.973Z,83.55
2022-09-24T17:09:50.340Z,83.97
2022-09-24T17:12:17.524Z,83.86
2022-09-24T17:14:44.512Z,84.05
2022-09-24T17:17:12.264Z,84.13
2022-09-24T17:19:39.187Z,84.23
2022-09-24T17:22:06.378Z,84.19
2022-09-24T17:24:34.637Z,84.35
2022-09-24T17:27:01.812Z,84.51
2022-09-24T17:29:32.027Z,84.38
2022-09-24T17:31:58.966Z,84.56
2022-09-24T17:34:25.758Z,84.51
2022-09-24T17:36:52.436Z,84.58
2022-09-24T17:39:19.084Z,84.86
2022-09-24T17:41:46.055Z,84.83
2022-09-24T17:44:13.386Z,84.77
2022-09-24T17:46:40.490Z,84.65
2022-09-24T17:49:08.143Z,84.85
2022-09-24T17:51:37.094Z,85.02
2022-09-24T17:54:15.859Z,85.48
2022-09-24T17:56:46.420Z,85.11
2022-09-24T17:59:17.355Z,85.04
2022-09-24T18:01:46.778Z,85.53
2022-09-24T18:04:16.414Z,85.35
2022-09-24T18:06:45.034Z,85.56
2022-09-24T18:09:15.497Z,85.54
2022-09-24T18:11:44.777Z,85.37
2022-09-24T18:14:17.385Z,85.26
2022-09-24T18:16:45.020Z,85.74
2022-09-24T18:19:13.226Z,85.79
2022-09-24T18:21:39.700Z,85.64
2022-09-24T18:24:06.497Z,86.07
2022-09-24T18:26:35.840Z,85.92
2022-09-24T18:29:06.122Z,85.98
2022-09-24T18:31:32.831Z,86.11
2022-09-24T18:34:05.903Z,86.19
2022-09-24T18:36:34.789Z,86.13
2022-09-24T18:39:02.205Z,86.31
2022-09-24T18:41:29.943Z,86.16
2022-09-24T18:43:59.358Z,86.18
2022-09-24T18:46:28.532Z,86.47
2022-09-24T18:48:56.524Z,86.49
2022-09-24T18:51:27.821Z,86.33
2022-09-24T18:53:59.038Z,86.50
2022-09-24T18:56:26.301Z,86.66
2022-09-24T18:58:57.526Z,86.77
2022-09-24T19:01:24.350Z,86.78
2022-09-24T19:03:51.224Z,86.51
2022-09-24T19:06:34.453Z,86.66
2022-09-24T19:09:01.437Z,86.69
2022-09-24T19:11:30.594Z,86.92
2022-09-24T19:13:58.290Z,87.00
2022-09-24T19:16:25.594Z,87.05
2022-09-24T19:18:53.853Z,86.85
2022-09-24T19:21:23.110Z,86.89
2022-09-24T19:23:52.254Z,87.01
2022-09-24T19:26:23.974Z,87.23
2022-09-24T19:28:51.267Z,87.40
2022-09-24T19:34:17.959Z,87.27
2022-09-24T19:36:45.429Z,87.41
2022-09-24T19:39:14.412Z,86.98
2022-09-24T19:41:41.440Z,87.49
2022-09-24T19:44:09.353Z,87.37
2022-09-24T19:46:38.300Z,87.39
2022-09-24T19:49:06.061Z,87.66
2022-09-24T19:51:33.761Z,87.67
2022-09-24T19:54:08.077Z,87.71
2022-09-24T19:56:35.937Z,87.90
2022-09-24T19:59:04.055Z,87.76
2022-09-24T20:01:32.500Z,87.76
2022-09-24T20:04:02.183Z,88.09
2022-09-24T20:06:31.265Z,87.92
2022-09-24T20:08:57.902Z,88.06
2022-09-24T20:11:25.735Z,88.03
2022-09-24T20:13:54.154Z,88.31
2022-09-24T20:16:26.345Z,88.26
2022-09-24T20:18:56.579Z,87.93
2022-09-24T20:21:28.447Z,88.16
2022-09-24T20:23:56.853Z,88.43
2022-09-24T20:26:43.164Z,88.40
2022-09-24T20:29:10.225Z,88.45
2022-09-24T20:31:42.327Z,88.47
2022-09-24T20:34:09.347Z,88.39
2022-09-24T20:36:36.411Z,88.59
2022-09-24T20:39:03.898Z,88.56
2022-09-24T20:41:30.365Z,88.33
2022-09-24T20:43:57.002Z,88.64
2022-09-24T20:46:25.989Z,88.66
2022-09-24T20:48:55.542Z,88.58
2022-09-24T20:51:22.057Z,88.55
2022-09-24T20:53:49.414Z,88.64
2022-09-24T20:56:18.688Z,89.02
2022-09-24T20:58:48.132Z,88.61
2022-09-24T21:01:14.592Z,88.96
2022-09-24T21:03:45.592Z,88.61
2022-09-24T21:06:15.086Z,89.00
2022-09-24T21:08:44.962Z,88.86
2022-09-24T21:11:13.842Z,88.78
2022-09-24T21:13:42.605Z,88.81
2022-09-24T21:16:10.080Z,89.15
2022-09-24T21:18:44.348Z,89.21
2022-09-24T21:21:35.360Z,89.31
2022-09-24T21:24:02.450Z,89.11
2022-09-24T21:26:31.508Z,89.30
2022-09-24T21:29:16.629Z,89.48
2022-09-24T21:31:46.420Z,89.54
2022-09-24T21:34:15.521Z,89.10
2022-09-24T21:36:44.778Z,89.09
2022-09-24T21:39:17.504Z,89.58
2022-09-24T21:41:45.405Z,89.65
2022-09-24T21:44:14.377Z,89.24
2022-09-24T21:46:43.096Z,89.67
2022-09-24T21:49:11.318Z,89.33
2022-09-24T21:51:38.888Z,89.52
2022-09-24T21:54:07.623Z,89.53
2022-09-24T21:56:35.656Z,89.60
2022-09-24T21:59:31.986Z,89.40
2022-09-24T22:01:58.910Z,89.61
2022-09-24T22:04:25.591Z,89.79
2022-09-24T22:06:52.713Z,89.75
2022-09-24T22:09:19.815Z,90.01
2022-09-24T22:11:47.022Z,89.69
2022-09-24T22:14:16.722Z,89.55
2022-09-24T22:16:43.251Z,89.83
2022-09-24T22:19:09.732Z,89.74
2022-09-24T22:21:40.849Z,89.38
2022-09-24T22:24:07.239Z,89.98
2022-09-24T22:26:33.955Z,90.13
2022-09-24T22:29:00.531Z,89.73
2022-09-24T22:31:27.173Z,89.79
2022-09-24T22:34:12.330Z,89.72
2022-09-24T22:36:39.005Z,90.00
2022-09-24T22:39:07.026Z,89.83
2022-09-24T22:41:39.723Z,89.59
2022-09-24T22:44:07.024Z,89.93
2022-09-24T22:46:35.856Z,90.22
2022-09-24T22:49:04.147Z,89.78
2022-09-24T22:54:24.184Z,90.35
2022-09-24T22:56:50.703Z,90.01
2022-09-24T22:59:17.049Z,89.77
2022-09-24T23:01:44.256Z,89.65
2022-09-24T23:04:15.047Z,90.20
2022-09-24T23:06:42.336Z,89.58
2022-09-24T23:09:10.362Z,90.48
2022-09-24T23:11:36.740Z,90.20
2022-09-24T23:14:06.478Z,90.23
2022-09-24T23:16:39.014Z,89.90
2022-09-24T23:19:08.040Z,90.37
2022-09-24T23:21:35.743Z,90.27
2022-09-24T23:24:07.757Z,90.99
2022-09-24T23:26:34.234Z,90.55
2022-09-24T23:29:00.713Z,90.32
2022-09-24T23:31:30.699Z,90.26
2022-09-24T23:33:58.761Z,90.74
2022-09-24T23:36:26.123Z,90.55
2022-09-24T23:38:53.642Z,90.54
2022-09-24T23:41:21.574Z,90.56
2022-09-24T23:43:48.084Z,90.47
2022-09-24T23:46:14.544Z,90.83
2022-09-24T23:48:41.597Z,90.81
2022-09-24T23:51:08.980Z,90.47
2022-09-24T23:53:36.419Z,90.98
2022-09-24T23:56:05.188Z,91.01
2022-09-24T23:58:31.568Z,90.91
